sensor_id;sensor_type;location;lat;lon;timestamp;temperature;humidity
52879;DHT22;38747;53.140;6.498;2023-03-01T00:01:15;-1.10;99.90
52879;DHT22;38747;53.140;6.498;2023-03-01T00:03:41;-1.10;99.90
52879;DHT22;38747;53.140;6.498;2023-03-01T00:06:07;-1.10;99.90
52879;DHT22;38747;53.140;6.498;2023-03-01T00:08:33;-1.20;99.90
52879;DHT22;38747;53.140;6.498;2023-03-01T00:11:20;-1.20;99.90
52879;DHT22;38747;53.140;6.498;2023-03-01T00:13:48;-1.20;99.90
52879;DHT22;38747;53.140;6.498;2023-03-01T00:16:17;-1.20;99.90
52879;DHT22;38747;53.140;6.498;2023-03-01T00:18:44;-1.20;99.90
52879;DHT22;38747;53.140;6.498;2023-03-01T00:21:09;-1.20;99.90
52879;DHT22;38747;53.140;6.498;2023-03-01T00:23:36;-1.20;99.90
52879;DHT22;38747;53.140;6.498;2023-03-01T00:26:05;-1.30;99.90
52879;DHT22;38747;53.140;6.498;2023-03-01T00:28:31;-1.20;99.90
52879;DHT22;38747;53.140;6.498;2023-03-01T00:31:03;-1.30;99.90
52879;DHT22;38747;53.140;6.498;2023-03-01T00:33:28;-1.30;99.90
52879;DHT22;38747;53.140;6.498;2023-03-01T00:35:54;-1.30;99.90
52879;DHT22;38747;53.140;6.498;2023-03-01T00:38:20;-1.30;99.90
52879;DHT22;38747;53.140;6.498;2023-03-01T00:40:45;-1.30;99.90
52879;DHT22;38747;53.140;6.498;2023-03-01T00:43:11;-1.30;99.90
52879;DHT22;38747;53.140;6.498;2023-03-01T00:45:36;-1.30;99.90
52879;DHT22;38747;53.140;6.498;2023-03-01T00:48:02;-1.40;99.90
52879;DHT22;38747;53.140;6.498;2023-03-01T00:50:28;-1.40;99.90
52879;DHT22;38747;53.140;6.498;2023-03-01T00:52:55;-1.40;99.90
52879;DHT22;38747;53.140;6.498;2023-03-01T00:55:21;-1.40;99.90
52879;DHT22;38747;53.140;6.498;2023-03-01T00:57:46;-1.40;99.90
52879;DHT22;38747;53.140;6.498;2023-03-01T01:00:12;-1.40;99.90
52879;DHT22;38747;53.140;6.498;2023-03-01T01:02:38;-1.30;99.90
52879;DHT22;38747;53.140;6.498;2023-03-01T01:05:04;-1.40;99.90
52879;DHT22;38747;53.140;6.498;2023-03-01T01:07:30;-1.40;99.90
52879;DHT22;38747;53.140;6.498;2023-03-01T01:09:55;-1.40;99.90
52879;DHT22;38747;53.140;6.498;2023-03-01T01:12:21;-1.40;99.90
52879;DHT22;38747;53.140;6.498;2023-03-01T01:14:47;-1.40;99.90
52879;DHT22;38747;53.140;6.498;2023-03-01T01:17:13;-1.50;99.90
52879;DHT22;38747;53.140;6.498;2023-03-01T01:19:39;-1.40;99.90
52879;DHT22;38747;53.140;6.498;2023-03-01T01:22:04;-1.50;99.90
52879;DHT22;38747;53.140;6.498;2023-03-01T01:24:30;-1.50;99.90
52879;DHT22;38747;53.140;6.498;2023-03-01T01:26:56;-1.50;99.90
52879;DHT22;38747;53.140;6.498;2023-03-01T01:29:21;-1.50;99.90
52879;DHT22;38747;53.140;6.498;2023-03-01T01:31:47;-1.50;99.90
52879;DHT22;38747;53.140;6.498;2023-03-01T01:34:19;-1.50;99.90
52879;DHT22;38747;53.140;6.498;2023-03-01T01:36:49;-1.60;99.90
52879;DHT22;38747;53.140;6.498;2023-03-01T01:39:15;-1.60;99.90
52879;DHT22;38747;53.140;6.498;2023-03-01T01:41:42;-1.70;99.90
52879;DHT22;38747;53.140;6.498;2023-03-01T01:44:20;-1.70;99.90
52879;DHT22;38747;53.140;6.498;2023-03-01T01:49:36;-1.60;99.90
52879;DHT22;38747;53.140;6.498;2023-03-01T01:52:22;-1.60;99.90
52879;DHT22;38747;53.140;6.498;2023-03-01T01:55:09;-1.60;99.90
52879;DHT22;38747;53.140;6.498;2023-03-01T01:57:47;-1.60;99.90
52879;DHT22;38747;53.140;6.498;2023-03-01T02:00:18;-1.60;99.90
52879;DHT22;38747;53.140;6.498;2023-03-01T02:02:45;-1.60;99.90
52879;DHT22;38747;53.140;6.498;2023-03-01T02:05:21;-1.60;99.90
52879;DHT22;38747;53.140;6.498;2023-03-01T02:07:49;-1.60;99.90
52879;DHT22;38747;53.140;6.498;2023-03-01T02:10:15;-1.60;99.90
52879;DHT22;38747;53.140;6.498;2023-03-01T02:12:41;-1.70;99.90
52879;DHT22;38747;53.140;6.498;2023-03-01T02:15:11;-1.70;99.90
52879;DHT22;38747;53.140;6.498;2023-03-01T02:17:37;-1.80;99.90
52879;DHT22;38747;53.140;6.498;2023-03-01T02:20:40;-1.80;99.90
52879;DHT22;38747;53.140;6.498;2023-03-01T02:23:10;-1.90;99.90
52879;DHT22;38747;53.140;6.498;2023-03-01T02:25:47;-1.90;99.90
52879;DHT22;38747;53.140;6.498;2023-03-01T02:30:44;-2.00;99.90
52879;DHT22;38747;53.140;6.498;2023-03-01T02:33:31;-2.00;99.90
52879;DHT22;38747;53.140;6.498;2023-03-01T02:36:00;-2.10;99.90
52879;DHT22;38747;53.140;6.498;2023-03-01T02:38:28;-2.10;99.90
52879;DHT22;38747;53.140;6.498;2023-03-01T02:40:54;-2.20;99.90
52879;DHT22;38747;53.140;6.498;2023-03-01T02:43:25;-2.30;99.90
52879;DHT22;38747;53.140;6.498;2023-03-01T02:45:53;-2.30;99.90
52879;DHT22;38747;53.140;6.498;2023-03-01T02:48:22;-2.40;99.90
52879;DHT22;38747;53.140;6.498;2023-03-01T02:56:18;-2.40;99.90
52879;DHT22;38747;53.140;6.498;2023-03-01T02:58:44;-2.40;99.90
52879;DHT22;38747;53.140;6.498;2023-03-01T03:01:13;-2.40;99.90
52879;DHT22;38747;53.140;6.498;2023-03-01T03:03:40;-2.40;99.90
52879;DHT22;38747;53.140;6.498;2023-03-01T03:06:06;-2.40;99.90
52879;DHT22;38747;53.140;6.498;2023-03-01T03:08:32;-2.50;99.90
52879;DHT22;38747;53.140;6.498;2023-03-01T03:10:58;-2.40;99.90
52879;DHT22;38747;53.140;6.498;2023-03-01T03:13:24;-2.40;99.90
52879;DHT22;38747;53.140;6.498;2023-03-01T03:15:54;-2.50;99.90
52879;DHT22;38747;53.140;6.498;2023-03-01T03:18:21;-2.60;99.90
52879;DHT22;38747;53.140;6.498;2023-03-01T03:20:47;-2.60;99.90
52879;DHT22;38747;53.140;6.498;2023-03-01T03:23:13;-2.60;99.90
52879;DHT22;38747;53.140;6.498;2023-03-01T03:25:39;-2.60;99.90
52879;DHT22;38747;53.140;6.498;2023-03-01T03:28:06;-2.70;99.90
52879;DHT22;38747;53.140;6.498;2023-03-01T03:30:37;-2.70;99.90
52879;DHT22;38747;53.140;6.498;2023-03-01T03:33:05;-2.80;99.90
52879;DHT22;38747;53.140;6.498;2023-03-01T03:35:34;-2.80;99.90
52879;DHT22;38747;53.140;6.498;2023-03-01T03:38:05;-2.80;99.90
52879;DHT22;38747;53.140;6.498;2023-03-01T03:40:37;-2.80;99.90
52879;DHT22;38747;53.140;6.498;2023-03-01T03:43:06;-2.80;99.90
52879;DHT22;38747;53.140;6.498;2023-03-01T03:45:33;-2.90;99.90
52879;DHT22;38747;53.140;6.498;2023-03-01T03:48:02;-2.90;99.90
52879;DHT22;38747;53.140;6.498;2023-03-01T03:50:32;-2.90;99.90
52879;DHT22;38747;53.140;6.498;2023-03-01T03:53:04;-2.90;99.90
52879;DHT22;38747;53.140;6.498;2023-03-01T03:55:31;-2.90;99.90
52879;DHT22;38747;53.140;6.498;2023-03-01T03:58:00;-3.00;99.90
52879;DHT22;38747;53.140;6.498;2023-03-01T04:00:34;-3.10;99.90
52879;DHT22;38747;53.140;6.498;2023-03-01T06:26:07;-3.70;99.90
52879;DHT22;38747;53.140;6.498;2023-03-01T06:28:34;-3.70;99.90
52879;DHT22;38747;53.140;6.498;2023-03-01T06:31:00;-3.70;99.90
52879;DHT22;38747;53.140;6.498;2023-03-01T06:33:27;-3.70;99.90
52879;DHT22;38747;53.140;6.498;2023-03-01T06:35:56;-3.70;99.90
52879;DHT22;38747;53.140;6.498;2023-03-01T06:40:53;-3.70;99.90
52879;DHT22;38747;53.140;6.498;2023-03-01T06:43:20;-3.70;99.90
52879;DHT22;38747;53.140;6.498;2023-03-01T06:45:46;-3.60;99.90
52879;DHT22;38747;53.140;6.498;2023-03-01T06:48:12;-3.60;99.90
52879;DHT22;38747;53.140;6.498;2023-03-01T06:50:38;-3.60;99.90
52879;DHT22;38747;53.140;6.498;2023-03-01T06:53:04;-3.50;99.90
52879;DHT22;38747;53.140;6.498;2023-03-01T06:55:31;-3.50;99.90
52879;DHT22;38747;53.140;6.498;2023-03-01T06:58:01;-3.50;99.90
52879;DHT22;38747;53.140;6.498;2023-03-01T07:00:28;-3.40;99.90
52879;DHT22;38747;53.140;6.498;2023-03-01T07:02:54;-3.40;99.90
52879;DHT22;38747;53.140;6.498;2023-03-01T07:05:20;-3.40;99.90
52879;DHT22;38747;53.140;6.498;2023-03-01T07:07:52;-3.40;99.90
52879;DHT22;38747;53.140;6.498;2023-03-01T07:10:19;-3.40;99.90
52879;DHT22;38747;53.140;6.498;2023-03-01T07:12:46;-3.40;99.90
52879;DHT22;38747;53.140;6.498;2023-03-01T07:15:20;-3.40;99.90
52879;DHT22;38747;53.140;6.498;2023-03-01T07:17:47;-3.40;99.90
52879;DHT22;38747;53.140;6.498;2023-03-01T07:20:17;-3.40;99.90
52879;DHT22;38747;53.140;6.498;2023-03-01T07:22:44;-3.40;99.90
52879;DHT22;38747;53.140;6.498;2023-03-01T07:25:11;-3.30;99.90
52879;DHT22;38747;53.140;6.498;2023-03-01T07:27:37;-3.20;99.90
52879;DHT22;38747;53.140;6.498;2023-03-01T07:30:07;-3.10;99.90
52879;DHT22;38747;53.140;6.498;2023-03-01T07:32:36;-3.10;99.90
52879;DHT22;38747;53.140;6.498;2023-03-01T07:35:04;-3.00;99.90
52879;DHT22;38747;53.140;6.498;2023-03-01T07:37:41;-2.90;99.90
52879;DHT22;38747;53.140;6.498;2023-03-01T07:40:23;-2.80;99.90
52879;DHT22;38747;53.140;6.498;2023-03-01T07:42:57;-2.70;99.90
52879;DHT22;38747;53.140;6.498;2023-03-01T07:45:59;-2.60;99.90
52879;DHT22;38747;53.140;6.498;2023-03-01T07:48:33;-2.40;99.90
52879;DHT22;38747;53.140;6.498;2023-03-01T07:51:04;-2.30;99.90
52879;DHT22;38747;53.140;6.498;2023-03-01T07:53:30;-2.20;99.90
52879;DHT22;38747;53.140;6.498;2023-03-01T07:56:10;-2.00;99.90
52879;DHT22;38747;53.140;6.498;2023-03-01T07:58:39;-1.90;99.90
52879;DHT22;38747;53.140;6.498;2023-03-01T08:01:07;-1.80;99.90
52879;DHT22;38747;53.140;6.498;2023-03-01T08:03:34;-1.70;99.90
52879;DHT22;38747;53.140;6.498;2023-03-01T08:06:01;-1.50;99.90
52879;DHT22;38747;53.140;6.498;2023-03-01T08:08:27;-1.40;99.90
52879;DHT22;38747;53.140;6.498;2023-03-01T08:10:57;-1.30;99.90
52879;DHT22;38747;53.140;6.498;2023-03-01T08:13:23;-1.10;99.90
52879;DHT22;38747;53.140;6.498;2023-03-01T08:15:49;-1.00;99.90
52879;DHT22;38747;53.140;6.498;2023-03-01T08:18:16;-0.90;99.90
52879;DHT22;38747;53.140;6.498;2023-03-01T08:20:42;-0.80;99.90
52879;DHT22;38747;53.140;6.498;2023-03-01T08:23:08;-0.60;99.90
52879;DHT22;38747;53.140;6.498;2023-03-01T08:25:33;-0.60;99.90
52879;DHT22;38747;53.140;6.498;2023-03-01T08:27:59;-0.50;99.90
52879;DHT22;38747;53.140;6.498;2023-03-01T08:30:24;-0.40;99.90
52879;DHT22;38747;53.140;6.498;2023-03-01T08:32:50;-0.30;99.90
52879;DHT22;38747;53.140;6.498;2023-03-01T08:35:17;-0.30;99.90
52879;DHT22;38747;53.140;6.498;2023-03-01T08:37:42;-0.20;99.90
52879;DHT22;38747;53.140;6.498;2023-03-01T08:40:08;-0.10;99.90
52879;DHT22;38747;53.140;6.498;2023-03-01T08:42:36;0.00;99.90
52879;DHT22;38747;53.140;6.498;2023-03-01T08:45:02;0.10;99.90
52879;DHT22;38747;53.140;6.498;2023-03-01T08:47:28;0.20;99.90
52879;DHT22;38747;53.140;6.498;2023-03-01T08:49:54;0.30;99.90
52879;DHT22;38747;53.140;6.498;2023-03-01T08:52:20;0.40;99.90
52879;DHT22;38747;53.140;6.498;2023-03-01T08:54:48;0.40;99.90
52879;DHT22;38747;53.140;6.498;2023-03-01T08:57:14;0.50;99.90
52879;DHT22;38747;53.140;6.498;2023-03-01T08:59:40;0.60;99.90
52879;DHT22;38747;53.140;6.498;2023-03-01T09:02:11;0.80;99.90
52879;DHT22;38747;53.140;6.498;2023-03-01T09:04:37;0.90;99.90
52879;DHT22;38747;53.140;6.498;2023-03-01T09:07:03;0.90;99.90
52879;DHT22;38747;53.140;6.498;2023-03-01T09:09:29;1.10;99.90
52879;DHT22;38747;53.140;6.498;2023-03-01T09:11:55;1.20;99.90
52879;DHT22;38747;53.140;6.498;2023-03-01T09:14:20;1.20;99.90
52879;DHT22;38747;53.140;6.498;2023-03-01T09:16:46;1.30;99.90
52879;DHT22;38747;53.140;6.498;2023-03-01T09:19:12;1.40;99.90
52879;DHT22;38747;53.140;6.498;2023-03-01T09:21:38;1.50;99.90
52879;DHT22;38747;53.140;6.498;2023-03-01T09:24:04;1.70;99.90
52879;DHT22;38747;53.140;6.498;2023-03-01T09:26:29;1.70;99.90
52879;DHT22;38747;53.140;6.498;2023-03-01T09:28:56;1.80;99.90
52879;DHT22;38747;53.140;6.498;2023-03-01T09:31:23;1.90;99.90
52879;DHT22;38747;53.140;6.498;2023-03-01T09:33:51;2.10;99.90
52879;DHT22;38747;53.140;6.498;2023-03-01T09:36:19;2.20;99.90
52879;DHT22;38747;53.140;6.498;2023-03-01T09:38:47;2.40;99.90
52879;DHT22;38747;53.140;6.498;2023-03-01T09:44:10;2.60;99.90
52879;DHT22;38747;53.140;6.498;2023-03-01T09:46:41;2.70;99.90
52879;DHT22;38747;53.140;6.498;2023-03-01T09:49:14;2.70;99.90
52879;DHT22;38747;53.140;6.498;2023-03-01T09:51:43;2.90;99.90
52879;DHT22;38747;53.140;6.498;2023-03-01T09:54:14;3.00;99.90
52879;DHT22;38747;53.140;6.498;2023-03-01T09:56:44;3.10;99.90
52879;DHT22;38747;53.140;6.498;2023-03-01T10:02:05;3.20;99.90
52879;DHT22;38747;53.140;6.498;2023-03-01T10:04:48;3.30;99.90
52879;DHT22;38747;53.140;6.498;2023-03-01T10:10:08;3.50;99.90
52879;DHT22;38747;53.140;6.498;2023-03-01T10:12:37;3.60;99.90
52879;DHT22;38747;53.140;6.498;2023-03-01T10:17:44;3.70;99.90
52879;DHT22;38747;53.140;6.498;2023-03-01T10:22:50;3.90;99.90
52879;DHT22;38747;53.140;6.498;2023-03-01T10:28:02;4.10;99.90
52879;DHT22;38747;53.140;6.498;2023-03-01T10:30:39;4.10;99.90
52879;DHT22;38747;53.140;6.498;2023-03-01T10:33:23;4.20;99.90
52879;DHT22;38747;53.140;6.498;2023-03-01T10:35:50;4.30;99.90
52879;DHT22;38747;53.140;6.498;2023-03-01T10:38:18;4.30;99.90
52879;DHT22;38747;53.140;6.498;2023-03-01T10:43:25;4.50;99.90
52879;DHT22;38747;53.140;6.498;2023-03-01T10:45:51;4.50;99.90
52879;DHT22;38747;53.140;6.498;2023-03-01T10:48:24;4.70;99.90
52879;DHT22;38747;53.140;6.498;2023-03-01T10:53:37;4.80;99.90
52879;DHT22;38747;53.140;6.498;2023-03-01T10:56:10;4.90;99.90
52879;DHT22;38747;53.140;6.498;2023-03-01T10:58:41;4.90;99.90
52879;DHT22;38747;53.140;6.498;2023-03-01T11:03:41;5.00;99.90
52879;DHT22;38747;53.140;6.498;2023-03-01T11:08:49;5.10;99.90
52879;DHT22;38747;53.140;6.498;2023-03-01T11:11:21;5.20;99.90
52879;DHT22;38747;53.140;6.498;2023-03-01T11:14:03;5.20;99.90
52879;DHT22;38747;53.140;6.498;2023-03-01T11:16:36;5.30;99.90
52879;DHT22;38747;53.140;6.498;2023-03-01T11:21:39;5.30;99.90
52879;DHT22;38747;53.140;6.498;2023-03-01T11:24:11;5.40;99.90
52879;DHT22;38747;53.140;6.498;2023-03-01T11:26:44;5.40;99.90
52879;DHT22;38747;53.140;6.498;2023-03-01T11:29:29;5.40;99.90
52879;DHT22;38747;53.140;6.498;2023-03-01T11:31:58;5.50;99.90
52879;DHT22;38747;53.140;6.498;2023-03-01T11:34:49;5.60;99.90
52879;DHT22;38747;53.140;6.498;2023-03-01T11:37:40;5.60;99.90
52879;DHT22;38747;53.140;6.498;2023-03-01T11:40:35;5.70;99.90
52879;DHT22;38747;53.140;6.498;2023-03-01T11:43:15;5.80;99.90
52879;DHT22;38747;53.140;6.498;2023-03-01T12:06:03;6.10;99.90
52879;DHT22;38747;53.140;6.498;2023-03-01T12:08:49;6.10;99.90
52879;DHT22;38747;53.140;6.498;2023-03-01T12:22:28;6.40;99.90
52879;DHT22;38747;53.140;6.498;2023-03-01T12:25:19;6.40;99.90
52879;DHT22;38747;53.140;6.498;2023-03-01T12:28:08;6.40;99.90
52879;DHT22;38747;53.140;6.498;2023-03-01T12:30:57;6.40;99.90
52879;DHT22;38747;53.140;6.498;2023-03-01T12:48:40;6.60;99.90
52879;DHT22;38747;53.140;6.498;2023-03-01T12:51:14;6.70;99.90
52879;DHT22;38747;53.140;6.498;2023-03-01T12:53:41;6.80;99.90
52879;DHT22;38747;53.140;6.498;2023-03-01T12:56:18;6.80;99.90
52879;DHT22;38747;53.140;6.498;2023-03-01T13:09:55;6.90;99.90
52879;DHT22;38747;53.140;6.498;2023-03-01T13:20:47;6.90;99.90
52879;DHT22;38747;53.140;6.498;2023-03-01T13:31:03;6.90;99.90
52879;DHT22;38747;53.140;6.498;2023-03-01T13:35:56;6.90;99.90
52879;DHT22;38747;53.140;6.498;2023-03-01T13:38:48;6.90;99.90
52879;DHT22;38747;53.140;6.498;2023-03-01T13:41:53;6.90;99.90
52879;DHT22;38747;53.140;6.498;2023-03-01T13:44:48;7.00;99.90
52879;DHT22;38747;53.140;6.498;2023-03-01T13:47:17;7.00;99.90
52879;DHT22;38747;53.140;6.498;2023-03-01T13:50:00;7.00;99.90
52879;DHT22;38747;53.140;6.498;2023-03-01T13:52:45;7.00;99.90
52879;DHT22;38747;53.140;6.498;2023-03-01T13:57:48;7.00;99.90
52879;DHT22;38747;53.140;6.498;2023-03-01T14:00:38;7.10;99.90
52879;DHT22;38747;53.140;6.498;2023-03-01T14:03:11;7.10;99.90
52879;DHT22;38747;53.140;6.498;2023-03-01T14:05:38;7.10;99.90
52879;DHT22;38747;53.140;6.498;2023-03-01T14:08:04;7.10;99.90
52879;DHT22;38747;53.140;6.498;2023-03-01T14:19:17;7.00;99.90
52879;DHT22;38747;53.140;6.498;2023-03-01T14:21:46;6.90;99.90
52879;DHT22;38747;53.140;6.498;2023-03-01T14:24:20;7.00;99.90
52879;DHT22;38747;53.140;6.498;2023-03-01T14:26:48;6.90;99.90
52879;DHT22;38747;53.140;6.498;2023-03-01T14:29:33;7.00;99.90
52879;DHT22;38747;53.140;6.498;2023-03-01T14:32:18;6.90;99.90
52879;DHT22;38747;53.140;6.498;2023-03-01T14:34:49;6.90;99.90
52879;DHT22;38747;53.140;6.498;2023-03-01T14:37:33;6.90;99.90
52879;DHT22;38747;53.140;6.498;2023-03-01T14:40:01;7.00;99.90
52879;DHT22;38747;53.140;6.498;2023-03-01T14:42:31;6.90;99.90
52879;DHT22;38747;53.140;6.498;2023-03-01T14:45:01;6.90;99.90
52879;DHT22;38747;53.140;6.498;2023-03-01T14:47:32;6.90;99.90
52879;DHT22;38747;53.140;6.498;2023-03-01T14:52:42;6.90;99.90
52879;DHT22;38747;53.140;6.498;2023-03-01T14:55:23;6.90;99.90
52879;DHT22;38747;53.140;6.498;2023-03-01T14:57:51;6.90;99.90
52879;DHT22;38747;53.140;6.498;2023-03-01T15:00:29;6.90;99.90
52879;DHT22;38747;53.140;6.498;2023-03-01T15:02:57;6.90;99.90
52879;DHT22;38747;53.140;6.498;2023-03-01T15:05:31;6.90;99.90
52879;DHT22;38747;53.140;6.498;2023-03-01T15:08:00;6.80;99.90
52879;DHT22;38747;53.140;6.498;2023-03-01T15:10:29;6.80;99.90
52879;DHT22;38747;53.140;6.498;2023-03-01T15:12:55;6.80;99.90
52879;DHT22;38747;53.140;6.498;2023-03-01T15:18:22;6.80;99.90
52879;DHT22;38747;53.140;6.498;2023-03-01T15:20:51;6.80;99.90
52879;DHT22;38747;53.140;6.498;2023-03-01T15:23:29;6.80;99.90
52879;DHT22;38747;53.140;6.498;2023-03-01T15:25:56;6.70;99.90
52879;DHT22;38747;53.140;6.498;2023-03-01T15:28:30;6.70;99.90
52879;DHT22;38747;53.140;6.498;2023-03-01T15:31:20;6.80;99.90
52879;DHT22;38747;53.140;6.498;2023-03-01T15:33:47;6.80;99.90
52879;DHT22;38747;53.140;6.498;2023-03-01T15:36:44;6.80;99.90
52879;DHT22;38747;53.140;6.498;2023-03-01T15:41:55;6.70;99.90
52879;DHT22;38747;53.140;6.498;2023-03-01T15:44:31;6.70;99.90
52879;DHT22;38747;53.140;6.498;2023-03-01T15:46:57;6.70;99.90
52879;DHT22;38747;53.140;6.498;2023-03-01T15:49:41;6.60;99.90
52879;DHT22;38747;53.140;6.498;2023-03-01T15:52:17;6.60;99.90
52879;DHT22;38747;53.140;6.498;2023-03-01T15:54:44;6.60;99.90
52879;DHT22;38747;53.140;6.498;2023-03-01T15:57:14;6.60;99.90
52879;DHT22;38747;53.140;6.498;2023-03-01T15:59:41;6.50;99.90
52879;DHT22;38747;53.140;6.498;2023-03-01T16:02:11;6.50;99.90
52879;DHT22;38747;53.140;6.498;2023-03-01T16:04:38;6.40;99.90
52879;DHT22;38747;53.140;6.498;2023-03-01T16:07:04;6.40;99.90
52879;DHT22;38747;53.140;6.498;2023-03-01T16:09:30;6.40;99.90
52879;DHT22;38747;53.140;6.498;2023-03-01T16:11:55;6.30;99.90
52879;DHT22;38747;53.140;6.498;2023-03-01T16:14:21;6.30;99.90
52879;DHT22;38747;53.140;6.498;2023-03-01T16:16:47;6.30;99.90
52879;DHT22;38747;53.140;6.498;2023-03-01T16:19:17;6.20;99.90
52879;DHT22;38747;53.140;6.498;2023-03-01T16:21:43;6.20;99.90
52879;DHT22;38747;53.140;6.498;2023-03-01T16:24:12;6.10;99.90
52879;DHT22;38747;53.140;6.498;2023-03-01T16:26:38;6.10;99.90
52879;DHT22;38747;53.140;6.498;2023-03-01T16:29:04;6.00;99.90
52879;DHT22;38747;53.140;6.498;2023-03-01T16:31:30;6.00;99.90
52879;DHT22;38747;53.140;6.498;2023-03-01T16:33:57;5.90;99.90
52879;DHT22;38747;53.140;6.498;2023-03-01T16:36:24;5.80;99.90
52879;DHT22;38747;53.140;6.498;2023-03-01T16:38:54;5.80;99.90
52879;DHT22;38747;53.140;6.498;2023-03-01T16:41:21;5.70;99.90
52879;DHT22;38747;53.140;6.498;2023-03-01T16:43:48;5.70;99.90
52879;DHT22;38747;53.140;6.498;2023-03-01T16:46:16;5.60;99.90
52879;DHT22;38747;53.140;6.498;2023-03-01T16:48:42;5.60;99.90
52879;DHT22;38747;53.140;6.498;2023-03-01T16:51:08;5.60;99.90
52879;DHT22;38747;53.140;6.498;2023-03-01T16:53:34;5.50;99.90
52879;DHT22;38747;53.140;6.498;2023-03-01T16:56:05;5.40;99.90
52879;DHT22;38747;53.140;6.498;2023-03-01T16:58:33;5.40;99.90
52879;DHT22;38747;53.140;6.498;2023-03-01T17:01:11;5.30;99.90
52879;DHT22;38747;53.140;6.498;2023-03-01T17:03:38;5.30;99.90
52879;DHT22;38747;53.140;6.498;2023-03-01T17:06:06;5.20;99.90
52879;DHT22;38747;53.140;6.498;2023-03-01T17:08:33;5.10;99.90
52879;DHT22;38747;53.140;6.498;2023-03-01T17:11:11;5.00;99.90
52879;DHT22;38747;53.140;6.498;2023-03-01T17:13:37;5.00;99.90
52879;DHT22;38747;53.140;6.498;2023-03-01T17:16:09;4.90;99.90
52879;DHT22;38747;53.140;6.498;2023-03-01T17:18:36;4.90;99.90
52879;DHT22;38747;53.140;6.498;2023-03-01T17:21:02;4.90;99.90
52879;DHT22;38747;53.140;6.498;2023-03-01T17:23:29;4.80;99.90
52879;DHT22;38747;53.140;6.498;2023-03-01T17:25:55;4.80;99.90
52879;DHT22;38747;53.140;6.498;2023-03-01T17:28:26;4.80;99.90
52879;DHT22;38747;53.140;6.498;2023-03-01T17:30:53;4.70;99.90
52879;DHT22;38747;53.140;6.498;2023-03-01T17:33:19;4.80;99.90
52879;DHT22;38747;53.140;6.498;2023-03-01T17:35:45;4.70;99.90
52879;DHT22;38747;53.140;6.498;2023-03-01T17:38:13;4.70;99.90
52879;DHT22;38747;53.140;6.498;2023-03-01T17:40:41;4.70;99.90
52879;DHT22;38747;53.140;6.498;2023-03-01T17:43:07;4.70;99.90
52879;DHT22;38747;53.140;6.498;2023-03-01T17:45:35;4.70;99.90
52879;DHT22;38747;53.140;6.498;2023-03-01T17:48:01;4.60;99.90
52879;DHT22;38747;53.140;6.498;2023-03-01T17:50:27;4.60;99.90
52879;DHT22;38747;53.140;6.498;2023-03-01T17:52:53;4.60;99.90
52879;DHT22;38747;53.140;6.498;2023-03-01T17:55:20;4.60;99.90
52879;DHT22;38747;53.140;6.498;2023-03-01T17:57:46;4.60;99.90
52879;DHT22;38747;53.140;6.498;2023-03-01T18:00:14;4.60;99.90
52879;DHT22;38747;53.140;6.498;2023-03-01T18:02:40;4.60;99.90
52879;DHT22;38747;53.140;6.498;2023-03-01T18:05:06;4.60;99.90
52879;DHT22;38747;53.140;6.498;2023-03-01T18:07:33;4.50;99.90
52879;DHT22;38747;53.140;6.498;2023-03-01T18:09:59;4.50;99.90
52879;DHT22;38747;53.140;6.498;2023-03-01T18:12:24;4.40;99.90
52879;DHT22;38747;53.140;6.498;2023-03-01T18:14:50;4.40;99.90
52879;DHT22;38747;53.140;6.498;2023-03-01T18:17:21;4.40;99.90
52879;DHT22;38747;53.140;6.498;2023-03-01T18:19:47;4.30;99.90
52879;DHT22;38747;53.140;6.498;2023-03-01T18:22:13;4.30;99.90
52879;DHT22;38747;53.140;6.498;2023-03-01T18:24:39;4.20;99.90
52879;DHT22;38747;53.140;6.498;2023-03-01T18:27:06;4.10;99.90
52879;DHT22;38747;53.140;6.498;2023-03-01T18:29:31;4.10;99.90
52879;DHT22;38747;53.140;6.498;2023-03-01T18:31:57;4.00;99.90
52879;DHT22;38747;53.140;6.498;2023-03-01T18:34:23;3.90;99.90
52879;DHT22;38747;53.140;6.498;2023-03-01T18:36:49;3.90;99.90
52879;DHT22;38747;53.140;6.498;2023-03-01T18:39:16;3.80;99.90
52879;DHT22;38747;53.140;6.498;2023-03-01T18:41:44;3.70;99.90
52879;DHT22;38747;53.140;6.498;2023-03-01T18:44:10;3.70;99.90
52879;DHT22;38747;53.140;6.498;2023-03-01T18:46:36;3.60;99.90
52879;DHT22;38747;53.140;6.498;2023-03-01T18:49:03;3.60;99.90
52879;DHT22;38747;53.140;6.498;2023-03-01T18:51:28;3.50;99.90
52879;DHT22;38747;53.140;6.498;2023-03-01T18:53:55;3.40;99.90
52879;DHT22;38747;53.140;6.498;2023-03-01T18:56:23;3.30;99.90
52879;DHT22;38747;53.140;6.498;2023-03-01T18:58:49;3.20;99.90
52879;DHT22;38747;53.140;6.498;2023-03-01T19:01:22;3.20;99.90
52879;DHT22;38747;53.140;6.498;2023-03-01T19:03:48;3.10;99.90
52879;DHT22;38747;53.140;6.498;2023-03-01T19:06:14;3.00;99.90
52879;DHT22;38747;53.140;6.498;2023-03-01T19:08:39;2.90;99.90
52879;DHT22;38747;53.140;6.498;2023-03-01T19:11:07;2.90;99.90
52879;DHT22;38747;53.140;6.498;2023-03-01T19:13:35;2.80;99.90
52879;DHT22;38747;53.140;6.498;2023-03-01T19:16:24;2.80;99.90
52879;DHT22;38747;53.140;6.498;2023-03-01T19:19:00;2.70;99.90
52879;DHT22;38747;53.140;6.498;2023-03-01T19:21:29;2.60;99.90
52879;DHT22;38747;53.140;6.498;2023-03-01T19:23:56;2.60;99.90
52879;DHT22;38747;53.140;6.498;2023-03-01T19:26:24;2.60;99.90
52879;DHT22;38747;53.140;6.498;2023-03-01T19:28:51;2.60;99.90
52879;DHT22;38747;53.140;6.498;2023-03-01T19:31:19;2.70;99.90
52879;DHT22;38747;53.140;6.498;2023-03-01T19:33:45;2.70;99.90
52879;DHT22;38747;53.140;6.498;2023-03-01T19:36:12;2.70;99.90
52879;DHT22;38747;53.140;6.498;2023-03-01T19:38:39;2.70;99.90
52879;DHT22;38747;53.140;6.498;2023-03-01T19:41:10;2.70;99.90
52879;DHT22;38747;53.140;6.498;2023-03-01T19:43:36;2.70;99.90
52879;DHT22;38747;53.140;6.498;2023-03-01T19:46:02;2.70;99.90
52879;DHT22;38747;53.140;6.498;2023-03-01T19:48:28;2.70;99.90
52879;DHT22;38747;53.140;6.498;2023-03-01T19:50:53;2.70;99.90
52879;DHT22;38747;53.140;6.498;2023-03-01T19:53:20;2.70;99.90
52879;DHT22;38747;53.140;6.498;2023-03-01T19:55:46;2.70;99.90
52879;DHT22;38747;53.140;6.498;2023-03-01T19:58:12;2.70;99.90
52879;DHT22;38747;53.140;6.498;2023-03-01T20:00:39;2.80;99.90
52879;DHT22;38747;53.140;6.498;2023-03-01T20:03:05;2.80;99.90
52879;DHT22;38747;53.140;6.498;2023-03-01T20:05:37;2.80;99.90
52879;DHT22;38747;53.140;6.498;2023-03-01T20:08:03;2.80;99.90
52879;DHT22;38747;53.140;6.498;2023-03-01T20:10:31;2.80;99.90
52879;DHT22;38747;53.140;6.498;2023-03-01T20:12:57;2.80;99.90
52879;DHT22;38747;53.140;6.498;2023-03-01T20:15:23;2.90;99.90
52879;DHT22;38747;53.140;6.498;2023-03-01T20:17:49;2.90;99.90
52879;DHT22;38747;53.140;6.498;2023-03-01T20:20:15;2.90;99.90
52879;DHT22;38747;53.140;6.498;2023-03-01T20:22:40;2.90;99.90
52879;DHT22;38747;53.140;6.498;2023-03-01T20:25:06;2.90;99.90
52879;DHT22;38747;53.140;6.498;2023-03-01T20:27:32;2.90;99.90
52879;DHT22;38747;53.140;6.498;2023-03-01T20:29:58;2.90;99.90
52879;DHT22;38747;53.140;6.498;2023-03-01T20:32:24;2.90;99.90
52879;DHT22;38747;53.140;6.498;2023-03-01T20:34:49;3.00;99.90
52879;DHT22;38747;53.140;6.498;2023-03-01T20:37:15;3.00;99.90